sensor_id;sensor_type;location;lat;lon;timestamp;temperature;humidity
36586;DHT22;22591;48.314;11.562;2023-05-18T00:02:13;6.00;99.90
36586;DHT22;22591;48.314;11.562;2023-05-18T00:04:42;6.00;99.90
36586;DHT22;22591;48.314;11.562;2023-05-18T00:07:08;5.90;99.90
36586;DHT22;22591;48.314;11.562;2023-05-18T00:09:35;5.90;99.90
36586;DHT22;22591;48.314;11.562;2023-05-18T00:12:01;5.80;99.90
36586;DHT22;22591;48.314;11.562;2023-05-18T00:14:27;5.80;99.90
36586;DHT22;22591;48.314;11.562;2023-05-18T00:16:53;5.80;99.90
36586;DHT22;22591;48.314;11.562;2023-05-18T00:19:20;5.70;99.90
36586;DHT22;22591;48.314;11.562;2023-05-18T00:21:46;5.70;99.90
36586;DHT22;22591;48.314;11.562;2023-05-18T00:24:13;5.70;99.90
36586;DHT22;22591;48.314;11.562;2023-05-18T00:26:43;5.60;99.90
36586;DHT22;22591;48.314;11.562;2023-05-18T00:29:09;5.60;99.90
36586;DHT22;22591;48.314;11.562;2023-05-18T00:31:36;5.60;99.90
36586;DHT22;22591;48.314;11.562;2023-05-18T00:34:10;5.50;99.90
36586;DHT22;22591;48.314;11.562;2023-05-18T00:36:37;5.50;99.90
36586;DHT22;22591;48.314;11.562;2023-05-18T00:39:04;5.50;99.90
36586;DHT22;22591;48.314;11.562;2023-05-18T00:41:30;5.60;99.90
36586;DHT22;22591;48.314;11.562;2023-05-18T00:43:56;5.50;99.90
36586;DHT22;22591;48.314;11.562;2023-05-18T00:46:23;5.50;99.90
36586;DHT22;22591;48.314;11.562;2023-05-18T00:48:50;5.50;99.90
36586;DHT22;22591;48.314;11.562;2023-05-18T00:51:17;5.40;99.90
36586;DHT22;22591;48.314;11.562;2023-05-18T00:53:43;5.40;99.90
36586;DHT22;22591;48.314;11.562;2023-05-18T00:56:09;5.40;99.90
36586;DHT22;22591;48.314;11.562;2023-05-18T00:58:37;5.30;99.90
36586;DHT22;22591;48.314;11.562;2023-05-18T01:01:02;5.30;99.90
36586;DHT22;22591;48.314;11.562;2023-05-18T01:03:32;5.30;99.90
36586;DHT22;22591;48.314;11.562;2023-05-18T01:05:57;5.30;99.90
36586;DHT22;22591;48.314;11.562;2023-05-18T01:08:24;5.30;99.90
36586;DHT22;22591;48.314;11.562;2023-05-18T01:11:15;5.30;99.90
36586;DHT22;22591;48.314;11.562;2023-05-18T01:13:47;5.30;99.90
36586;DHT22;22591;48.314;11.562;2023-05-18T01:16:24;5.30;99.90
36586;DHT22;22591;48.314;11.562;2023-05-18T01:24:47;5.20;99.90
36586;DHT22;22591;48.314;11.562;2023-05-18T01:27:15;5.20;99.90
36586;DHT22;22591;48.314;11.562;2023-05-18T01:29:43;5.10;99.90
36586;DHT22;22591;48.314;11.562;2023-05-18T01:32:19;5.10;99.90
36586;DHT22;22591;48.314;11.562;2023-05-18T01:34:46;5.10;99.90
36586;DHT22;22591;48.314;11.562;2023-05-18T01:37:12;5.10;99.90
36586;DHT22;22591;48.314;11.562;2023-05-18T01:39:38;5.10;99.90
36586;DHT22;22591;48.314;11.562;2023-05-18T01:42:12;5.00;99.90
36586;DHT22;22591;48.314;11.562;2023-05-18T01:44:44;5.00;99.90
36586;DHT22;22591;48.314;11.562;2023-05-18T01:47:11;5.00;99.90
36586;DHT22;22591;48.314;11.562;2023-05-18T01:49:50;5.00;99.90
36586;DHT22;22591;48.314;11.562;2023-05-18T01:52:34;4.90;99.90
36586;DHT22;22591;48.314;11.562;2023-05-18T01:55:03;4.90;99.90
36586;DHT22;22591;48.314;11.562;2023-05-18T01:57:30;4.80;99.90
36586;DHT22;22591;48.314;11.562;2023-05-18T02:00:00;4.80;99.90
36586;DHT22;22591;48.314;11.562;2023-05-18T02:02:27;4.80;99.90
36586;DHT22;22591;48.314;11.562;2023-05-18T02:04:52;4.80;99.90
36586;DHT22;22591;48.314;11.562;2023-05-18T02:07:18;4.80;99.90
36586;DHT22;22591;48.314;11.562;2023-05-18T02:09:43;4.80;99.90
36586;DHT22;22591;48.314;11.562;2023-05-18T02:12:09;4.70;99.90
36586;DHT22;22591;48.314;11.562;2023-05-18T02:14:35;4.70;99.90
36586;DHT22;22591;48.314;11.562;2023-05-18T02:17:01;4.70;99.90
36586;DHT22;22591;48.314;11.562;2023-05-18T02:19:26;4.70;99.90
36586;DHT22;22591;48.314;11.562;2023-05-18T02:21:52;4.70;99.90
36586;DHT22;22591;48.314;11.562;2023-05-18T02:24:17;4.70;99.90
36586;DHT22;22591;48.314;11.562;2023-05-18T02:26:43;4.70;99.90
36586;DHT22;22591;48.314;11.562;2023-05-18T02:29:09;4.70;99.90
36586;DHT22;22591;48.314;11.562;2023-05-18T02:31:37;4.70;99.90
36586;DHT22;22591;48.314;11.562;2023-05-18T02:34:02;4.70;99.90
36586;DHT22;22591;48.314;11.562;2023-05-18T02:36:28;4.70;99.90
36586;DHT22;22591;48.314;11.562;2023-05-18T02:39:02;4.70;99.90
36586;DHT22;22591;48.314;11.562;2023-05-18T02:41:29;4.70;99.90
36586;DHT22;22591;48.314;11.562;2023-05-18T02:43:55;4.80;99.90
36586;DHT22;22591;48.314;11.562;2023-05-18T02:46:20;4.80;99.90
36586;DHT22;22591;48.314;11.562;2023-05-18T02:48:46;4.80;99.90
36586;DHT22;22591;48.314;11.562;2023-05-18T02:51:12;4.80;99.90
36586;DHT22;22591;48.314;11.562;2023-05-18T02:53:38;4.90;99.90
36586;DHT22;22591;48.314;11.562;2023-05-18T02:56:03;4.90;99.90
36586;DHT22;22591;48.314;11.562;2023-05-18T02:58:29;4.90;99.90
36586;DHT22;22591;48.314;11.562;2023-05-18T03:00:55;4.90;99.90
36586;DHT22;22591;48.314;11.562;2023-05-18T03:03:21;5.00;99.90
36586;DHT22;22591;48.314;11.562;2023-05-18T03:05:48;5.00;99.90
36586;DHT22;22591;48.314;11.562;2023-05-18T03:08:18;5.00;99.90
36586;DHT22;22591;48.314;11.562;2023-05-18T03:10:43;5.00;99.90
36586;DHT22;22591;48.314;11.562;2023-05-18T03:13:09;5.00;99.90
36586;DHT22;22591;48.314;11.562;2023-05-18T03:15:35;5.00;99.90
36586;DHT22;22591;48.314;11.562;2023-05-18T03:18:02;5.00;99.90
36586;DHT22;22591;48.314;11.562;2023-05-18T03:20:27;5.00;99.90
36586;DHT22;22591;48.314;11.562;2023-05-18T03:22:56;4.90;99.90
36586;DHT22;22591;48.314;11.562;2023-05-18T03:25:21;5.00;99.90
36586;DHT22;22591;48.314;11.562;2023-05-18T03:27:50;5.00;99.90
36586;DHT22;22591;48.314;11.562;2023-05-18T03:30:15;4.90;99.90
36586;DHT22;22591;48.314;11.562;2023-05-18T03:32:41;5.00;99.90
36586;DHT22;22591;48.314;11.562;2023-05-18T03:35:07;5.00;99.90
36586;DHT22;22591;48.314;11.562;2023-05-18T03:37:33;4.90;99.90
36586;DHT22;22591;48.314;11.562;2023-05-18T03:39:59;4.90;99.90
36586;DHT22;22591;48.314;11.562;2023-05-18T03:42:32;5.00;99.90
36586;DHT22;22591;48.314;11.562;2023-05-18T03:44:58;5.00;99.90
36586;DHT22;22591;48.314;11.562;2023-05-18T03:47:23;5.00;99.90
36586;DHT22;22591;48.314;11.562;2023-05-18T03:49:49;5.10;99.90
36586;DHT22;22591;48.314;11.562;2023-05-18T03:52:14;5.20;99.90
36586;DHT22;22591;48.314;11.562;2023-05-18T03:54:49;5.20;99.90
36586;DHT22;22591;48.314;11.562;2023-05-18T03:57:18;5.20;99.90
36586;DHT22;22591;48.314;11.562;2023-05-18T03:59:44;5.30;99.90
36586;DHT22;22591;48.314;11.562;2023-05-18T04:02:10;5.30;99.90
36586;DHT22;22591;48.314;11.562;2023-05-18T04:04:37;5.40;99.90
36586;DHT22;22591;48.314;11.562;2023-05-18T04:07:07;5.40;99.90
36586;DHT22;22591;48.314;11.562;2023-05-18T04:09:33;5.50;99.90
36586;DHT22;22591;48.314;11.562;2023-05-18T04:11:59;5.60;99.90
36586;DHT22;22591;48.314;11.562;2023-05-18T04:14:25;5.60;99.90
36586;DHT22;22591;48.314;11.562;2023-05-18T04:16:52;5.70;99.90
36586;DHT22;22591;48.314;11.562;2023-05-18T04:19:18;5.80;99.90
36586;DHT22;22591;48.314;11.562;2023-05-18T04:21:44;5.90;99.90
36586;DHT22;22591;48.314;11.562;2023-05-18T04:24:11;6.00;99.90
36586;DHT22;22591;48.314;11.562;2023-05-18T04:26:39;6.10;99.90
36586;DHT22;22591;48.314;11.562;2023-05-18T04:29:05;6.20;99.90
36586;DHT22;22591;48.314;11.562;2023-05-18T04:31:35;6.30;99.90
36586;DHT22;22591;48.314;11.562;2023-05-18T04:34:00;6.40;99.90
36586;DHT22;22591;48.314;11.562;2023-05-18T04:36:26;6.50;99.90
36586;DHT22;22591;48.314;11.562;2023-05-18T04:38:57;6.60;99.90
36586;DHT22;22591;48.314;11.562;2023-05-18T04:41:24;6.70;99.90
36586;DHT22;22591;48.314;11.562;2023-05-18T04:43:50;6.70;99.90
36586;DHT22;22591;48.314;11.562;2023-05-18T04:46:16;6.90;99.90
36586;DHT22;22591;48.314;11.562;2023-05-18T04:48:42;7.00;99.90
36586;DHT22;22591;48.314;11.562;2023-05-18T04:51:07;7.00;99.90
36586;DHT22;22591;48.314;11.562;2023-05-18T04:53:33;7.20;99.90
36586;DHT22;22591;48.314;11.562;2023-05-18T04:55:59;7.20;99.90
36586;DHT22;22591;48.314;11.562;2023-05-18T04:58:25;7.40;99.90
36586;DHT22;22591;48.314;11.562;2023-05-18T05:00:52;7.40;99.90
36586;DHT22;22591;48.314;11.562;2023-05-18T05:03:18;7.50;99.90
36586;DHT22;22591;48.314;11.562;2023-05-18T05:05:43;7.60;99.90
36586;DHT22;22591;48.314;11.562;2023-05-18T05:08:09;7.70;99.90
36586;DHT22;22591;48.314;11.562;2023-05-18T05:10:36;7.80;99.90
36586;DHT22;22591;48.314;11.562;2023-05-18T05:13:02;8.00;99.90
36586;DHT22;22591;48.314;11.562;2023-05-18T05:15:27;8.10;99.90
36586;DHT22;22591;48.314;11.562;2023-05-18T05:17:53;8.40;99.90
36586;DHT22;22591;48.314;11.562;2023-05-18T05:20:18;8.20;99.90
36586;DHT22;22591;48.314;11.562;2023-05-18T05:22:44;8.30;99.90
36586;DHT22;22591;48.314;11.562;2023-05-18T05:25:10;8.40;99.90
36586;DHT22;22591;48.314;11.562;2023-05-18T05:27:35;8.50;99.90
36586;DHT22;22591;48.314;11.562;2023-05-18T05:30:01;8.50;99.90
36586;DHT22;22591;48.314;11.562;2023-05-18T05:32:27;8.60;99.90
36586;DHT22;22591;48.314;11.562;2023-05-18T05:34:52;8.80;99.90
36586;DHT22;22591;48.314;11.562;2023-05-18T05:37:18;8.90;99.90
36586;DHT22;22591;48.314;11.562;2023-05-18T05:39:44;9.00;99.90
36586;DHT22;22591;48.314;11.562;2023-05-18T05:42:09;9.00;99.90
36586;DHT22;22591;48.314;11.562;2023-05-18T05:44:35;9.10;99.90
36586;DHT22;22591;48.314;11.562;2023-05-18T05:47:01;9.30;99.90
36586;DHT22;22591;48.314;11.562;2023-05-18T05:49:26;9.30;99.90
36586;DHT22;22591;48.314;11.562;2023-05-18T05:51:52;9.40;99.90
36586;DHT22;22591;48.314;11.562;2023-05-18T05:54:17;9.40;99.90
36586;DHT22;22591;48.314;11.562;2023-05-18T05:56:43;9.60;99.90
36586;DHT22;22591;48.314;11.562;2023-05-18T05:59:08;9.60;99.90
36586;DHT22;22591;48.314;11.562;2023-05-18T06:01:34;9.80;99.90
36586;DHT22;22591;48.314;11.562;2023-05-18T06:04:00;10.00;99.90
36586;DHT22;22591;48.314;11.562;2023-05-18T06:06:27;10.10;99.90
36586;DHT22;22591;48.314;11.562;2023-05-18T06:08:53;10.20;99.90
36586;DHT22;22591;48.314;11.562;2023-05-18T06:11:18;10.40;99.90
36586;DHT22;22591;48.314;11.562;2023-05-18T06:13:44;10.40;99.90
36586;DHT22;22591;48.314;11.562;2023-05-18T06:16:09;10.50;99.90
36586;DHT22;22591;48.314;11.562;2023-05-18T06:18:35;10.50;99.90
36586;DHT22;22591;48.314;11.562;2023-05-18T06:21:00;10.70;99.90
36586;DHT22;22591;48.314;11.562;2023-05-18T06:23:26;11.60;99.90
36586;DHT22;22591;48.314;11.562;2023-05-18T06:25:51;12.70;99.90
36586;DHT22;22591;48.314;11.562;2023-05-18T06:28:17;14.00;99.90
36586;DHT22;22591;48.314;11.562;2023-05-18T06:30:43;15.50;99.90
36586;DHT22;22591;48.314;11.562;2023-05-18T06:33:09;16.80;99.90
36586;DHT22;22591;48.314;11.562;2023-05-18T06:35:34;17.30;99.90
36586;DHT22;22591;48.314;11.562;2023-05-18T06:38:00;17.00;98.40
36586;DHT22;22591;48.314;11.562;2023-05-18T06:40:26;16.10;98.70
36586;DHT22;22591;48.314;11.562;2023-05-18T06:42:51;15.80;98.90
36586;DHT22;22591;48.314;11.562;2023-05-18T06:45:17;14.80;99.50
36586;DHT22;22591;48.314;11.562;2023-05-18T06:47:44;13.90;99.90
36586;DHT22;22591;48.314;11.562;2023-05-18T06:50:10;13.00;99.90
36586;DHT22;22591;48.314;11.562;2023-05-18T06:52:36;12.60;99.90
36586;DHT22;22591;48.314;11.562;2023-05-18T06:55:01;12.40;99.90
36586;DHT22;22591;48.314;11.562;2023-05-18T06:57:28;12.40;99.90
36586;DHT22;22591;48.314;11.562;2023-05-18T06:59:53;12.30;99.90
36586;DHT22;22591;48.314;11.562;2023-05-18T07:02:19;12.40;99.90
36586;DHT22;22591;48.314;11.562;2023-05-18T07:04:46;12.20;99.90
36586;DHT22;22591;48.314;11.562;2023-05-18T07:07:11;12.10;99.90
36586;DHT22;22591;48.314;11.562;2023-05-18T07:09:37;12.10;99.90
36586;DHT22;22591;48.314;11.562;2023-05-18T07:12:03;12.30;99.90
36586;DHT22;22591;48.314;11.562;2023-05-18T07:14:29;12.20;99.90
36586;DHT22;22591;48.314;11.562;2023-05-18T07:16:54;12.30;99.90
36586;DHT22;22591;48.314;11.562;2023-05-18T07:19:20;12.50;99.90
36586;DHT22;22591;48.314;11.562;2023-05-18T07:21:45;12.80;99.90
36586;DHT22;22591;48.314;11.562;2023-05-18T07:24:11;13.20;99.90
36586;DHT22;22591;48.314;11.562;2023-05-18T07:26:36;13.40;99.90
36586;DHT22;22591;48.314;11.562;2023-05-18T07:29:02;13.70;99.90
36586;DHT22;22591;48.314;11.562;2023-05-18T07:31:28;13.90;99.90
36586;DHT22;22591;48.314;11.562;2023-05-18T07:33:53;13.90;99.90
36586;DHT22;22591;48.314;11.562;2023-05-18T07:36:19;14.20;99.90
36586;DHT22;22591;48.314;11.562;2023-05-18T07:38:45;14.20;99.90
36586;DHT22;22591;48.314;11.562;2023-05-18T07:41:10;14.40;99.90
36586;DHT22;22591;48.314;11.562;2023-05-18T07:43:36;14.60;99.90
36586;DHT22;22591;48.314;11.562;2023-05-18T07:46:02;14.60;99.90
36586;DHT22;22591;48.314;11.562;2023-05-18T07:48:27;14.90;99.90
36586;DHT22;22591;48.314;11.562;2023-05-18T07:50:53;15.00;99.90
36586;DHT22;22591;48.314;11.562;2023-05-18T07:53:18;15.10;99.90
36586;DHT22;22591;48.314;11.562;2023-05-18T07:55:44;15.00;99.90
36586;DHT22;22591;48.314;11.562;2023-05-18T07:58:10;15.10;99.90
36586;DHT22;22591;48.314;11.562;2023-05-18T08:00:36;15.10;99.80
36586;DHT22;22591;48.314;11.562;2023-05-18T08:03:01;15.30;99.90
36586;DHT22;22591;48.314;11.562;2023-05-18T08:05:27;15.30;99.90
36586;DHT22;22591;48.314;11.562;2023-05-18T08:07:53;15.00;99.90
36586;DHT22;22591;48.314;11.562;2023-05-18T08:10:18;14.90;99.90
36586;DHT22;22591;48.314;11.562;2023-05-18T08:12:44;14.60;99.90
36586;DHT22;22591;48.314;11.562;2023-05-18T08:15:10;14.60;99.90
36586;DHT22;22591;48.314;11.562;2023-05-18T08:17:36;14.50;99.90
36586;DHT22;22591;48.314;11.562;2023-05-18T08:20:02;14.50;99.90
36586;DHT22;22591;48.314;11.562;2023-05-18T08:22:29;14.60;99.90
36586;DHT22;22591;48.314;11.562;2023-05-18T08:24:54;14.60;99.90
36586;DHT22;22591;48.314;11.562;2023-05-18T08:27:21;14.90;99.70
36586;DHT22;22591;48.314;11.562;2023-05-18T08:29:46;14.80;99.30
36586;DHT22;22591;48.314;11.562;2023-05-18T08:32:12;14.80;98.90
36586;DHT22;22591;48.314;11.562;2023-05-18T08:34:38;14.70;98.30
36586;DHT22;22591;48.314;11.562;2023-05-18T08:37:03;14.70;98.60
36586;DHT22;22591;48.314;11.562;2023-05-18T08:39:29;15.10;98.20
36586;DHT22;22591;48.314;11.562;2023-05-18T08:42:10;15.30;98.10
36586;DHT22;22591;48.314;11.562;2023-05-18T08:44:50;15.40;96.80
36586;DHT22;22591;48.314;11.562;2023-05-18T08:47:21;15.60;97.50
36586;DHT22;22591;48.314;11.562;2023-05-18T08:49:51;15.70;96.50
36586;DHT22;22591;48.314;11.562;2023-05-18T08:52:17;15.70;96.00
36586;DHT22;22591;48.314;11.562;2023-05-18T08:54:44;15.40;96.10
36586;DHT22;22591;48.314;11.562;2023-05-18T08:57:11;15.40;96.50
36586;DHT22;22591;48.314;11.562;2023-05-18T08:59:40;15.80;97.40
36586;DHT22;22591;48.314;11.562;2023-05-18T09:02:06;16.00;96.30
36586;DHT22;22591;48.314;11.562;2023-05-18T09:04:32;16.30;95.30
36586;DHT22;22591;48.314;11.562;2023-05-18T09:07:02;16.20;94.90
36586;DHT22;22591;48.314;11.562;2023-05-18T09:09:28;16.00;94.40
36586;DHT22;22591;48.314;11.562;2023-05-18T09:11:55;15.30;94.50
36586;DHT22;22591;48.314;11.562;2023-05-18T09:14:20;15.00;94.90
36586;DHT22;22591;48.314;11.562;2023-05-18T09:16:53;15.10;95.70
36586;DHT22;22591;48.314;11.562;2023-05-18T09:19:19;15.30;95.30
36586;DHT22;22591;48.314;11.562;2023-05-18T09:21:45;15.60;94.70
36586;DHT22;22591;48.314;11.562;2023-05-18T09:24:11;15.70;95.20
36586;DHT22;22591;48.314;11.562;2023-05-18T09:26:37;15.70;95.00
36586;DHT22;22591;48.314;11.562;2023-05-18T09:29:19;15.90;93.80
36586;DHT22;22591;48.314;11.562;2023-05-18T09:31:46;16.10;94.10
36586;DHT22;22591;48.314;11.562;2023-05-18T09:34:13;16.20;93.30
36586;DHT22;22591;48.314;11.562;2023-05-18T09:36:38;16.50;94.00
36586;DHT22;22591;48.314;11.562;2023-05-18T09:39:08;16.60;92.80
36586;DHT22;22591;48.314;11.562;2023-05-18T09:41:39;16.90;92.20
36586;DHT22;22591;48.314;11.562;2023-05-18T09:44:08;17.20;92.80
36586;DHT22;22591;48.314;11.562;2023-05-18T09:46:35;17.30;92.90
36586;DHT22;22591;48.314;11.562;2023-05-18T09:49:03;17.40;93.10
36586;DHT22;22591;48.314;11.562;2023-05-18T09:51:29;17.70;92.70
36586;DHT22;22591;48.314;11.562;2023-05-18T09:53:57;17.90;91.00
36586;DHT22;22591;48.314;11.562;2023-05-18T09:56:24;17.70;88.60
36586;DHT22;22591;48.314;11.562;2023-05-18T09:58:51;18.00;88.60
36586;DHT22;22591;48.314;11.562;2023-05-18T10:01:17;18.00;88.40
36586;DHT22;22591;48.314;11.562;2023-05-18T10:03:43;18.10;88.90
36586;DHT22;22591;48.314;11.562;2023-05-18T10:06:11;17.90;88.70
36586;DHT22;22591;48.314;11.562;2023-05-18T10:08:41;17.90;89.00
36586;DHT22;22591;48.314;11.562;2023-05-18T10:11:08;17.80;88.10
36586;DHT22;22591;48.314;11.562;2023-05-18T10:13:33;18.00;86.60
36586;DHT22;22591;48.314;11.562;2023-05-18T10:16:01;18.30;86.40
36586;DHT22;22591;48.314;11.562;2023-05-18T10:18:29;18.70;85.10
36586;DHT22;22591;48.314;11.562;2023-05-18T10:20:57;18.70;84.70
36586;DHT22;22591;48.314;11.562;2023-05-18T10:23:25;18.70;85.00
36586;DHT22;22591;48.314;11.562;2023-05-18T10:25:52;18.90;85.40
36586;DHT22;22591;48.314;11.562;2023-05-18T10:28:24;19.20;83.40
36586;DHT22;22591;48.314;11.562;2023-05-18T10:30:53;19.10;83.80
36586;DHT22;22591;48.314;11.562;2023-05-18T10:33:27;18.20;82.20
36586;DHT22;22591;48.314;11.562;2023-05-18T10:35:53;17.60;84.30
36586;DHT22;22591;48.314;11.562;2023-05-18T10:38:24;17.60;86.30
36586;DHT22;22591;48.314;11.562;2023-05-18T10:40:52;17.80;84.70
36586;DHT22;22591;48.314;11.562;2023-05-18T10:43:21;17.90;84.20
36586;DHT22;22591;48.314;11.562;2023-05-18T10:45:52;18.20;84.20
36586;DHT22;22591;48.314;11.562;2023-05-18T10:48:19;18.60;84.20
36586;DHT22;22591;48.314;11.562;2023-05-18T10:50:47;18.80;81.90
36586;DHT22;22591;48.314;11.562;2023-05-18T10:53:16;18.80;81.40
36586;DHT22;22591;48.314;11.562;2023-05-18T10:55:42;18.60;81.30
36586;DHT22;22591;48.314;11.562;2023-05-18T10:58:11;18.70;81.30
36586;DHT22;22591;48.314;11.562;2023-05-18T11:00:39;18.90;81.80
36586;DHT22;22591;48.314;11.562;2023-05-18T11:03:10;19.20;79.80
36586;DHT22;22591;48.314;11.562;2023-05-18T11:05:37;19.40;80.30
36586;DHT22;22591;48.314;11.562;2023-05-18T11:08:04;19.20;79.90
36586;DHT22;22591;48.314;11.562;2023-05-18T11:10:48;19.10;78.00
36586;DHT22;22591;48.314;11.562;2023-05-18T11:13:14;19.10;78.30
36586;DHT22;22591;48.314;11.562;2023-05-18T11:18:17;19.20;77.70
36586;DHT22;22591;48.314;11.562;2023-05-18T11:20:44;18.70;78.70
36586;DHT22;22591;48.314;11.562;2023-05-18T11:23:11;18.60;80.00
36586;DHT22;22591;48.314;11.562;2023-05-18T11:25:39;18.60;81.10
36586;DHT22;22591;48.314;11.562;2023-05-18T11:28:10;18.60;81.50
36586;DHT22;22591;48.314;11.562;2023-05-18T11:33:13;18.80;80.00
36586;DHT22;22591;48.314;11.562;2023-05-18T11:39:02;18.50;80.50
36586;DHT22;22591;48.314;11.562;2023-05-18T11:41:36;18.50;80.80
36586;DHT22;22591;48.314;11.562;2023-05-18T11:44:13;18.40;80.30
36586;DHT22;22591;48.314;11.562;2023-05-18T11:49:20;18.10;79.50
36586;DHT22;22591;48.314;11.562;2023-05-18T11:54:53;18.00;79.30
36586;DHT22;22591;48.314;11.562;2023-05-18T11:57:40;17.70;78.20
36586;DHT22;22591;48.314;11.562;2023-05-18T12:00:07;17.50;77.90
36586;DHT22;22591;48.314;11.562;2023-05-18T12:02:38;17.40;78.60
36586;DHT22;22591;48.314;11.562;2023-05-18T12:05:07;17.60;80.50
36586;DHT22;22591;48.314;11.562;2023-05-18T12:07:34;17.70;79.30
36586;DHT22;22591;48.314;11.562;2023-05-18T12:10:11;17.40;80.60
36586;DHT22;22591;48.314;11.562;2023-05-18T12:12:39;17.60;80.70
36586;DHT22;22591;48.314;11.562;2023-05-18T12:15:06;17.80;80.10
36586;DHT22;22591;48.314;11.562;2023-05-18T12:17:42;17.60;79.20
36586;DHT22;22591;48.314;11.562;2023-05-18T12:20:10;17.40;78.00
36586;DHT22;22591;48.314;11.562;2023-05-18T12:22:37;17.10;79.30
36586;DHT22;22591;48.314;11.562;2023-05-18T12:25:03;17.00;79.80
36586;DHT22;22591;48.314;11.562;2023-05-18T12:27:48;17.10;81.30
36586;DHT22;22591;48.314;11.562;2023-05-18T12:30:21;17.30;80.30
36586;DHT22;22591;48.314;11.562;2023-05-18T12:35:20;17.40;81.10
36586;DHT22;22591;48.314;11.562;2023-05-18T12:37:46;17.50;80.90
36586;DHT22;22591;48.314;11.562;2023-05-18T12:40:14;17.50;80.30
36586;DHT22;22591;48.314;11.562;2023-05-18T12:42:49;17.50;80.60
36586;DHT22;22591;48.314;11.562;2023-05-18T12:45:16;17.80;79.70
36586;DHT22;22591;48.314;11.562;2023-05-18T12:47:41;17.90;79.30
36586;DHT22;22591;48.314;11.562;2023-05-18T12:50:07;17.70;78.90
36586;DHT22;22591;48.314;11.562;2023-05-18T12:52:33;17.40;80.50
36586;DHT22;22591;48.314;11.562;2023-05-18T12:54:59;17.20;80.40
36586;DHT22;22591;48.314;11.562;2023-05-18T12:57:25;16.90;80.80
36586;DHT22;22591;48.314;11.562;2023-05-18T12:59:56;16.80;81.30
36586;DHT22;22591;48.314;11.562;2023-05-18T13:02:32;17.10;81.10
36586;DHT22;22591;48.314;11.562;2023-05-18T13:05:05;17.10;82.10
36586;DHT22;22591;48.314;11.562;2023-05-18T13:07:33;17.10;81.40
36586;DHT22;22591;48.314;11.562;2023-05-18T13:10:00;17.30;80.10
36586;DHT22;22591;48.314;11.562;2023-05-18T13:12:39;18.10;80.90
36586;DHT22;22591;48.314;11.562;2023-05-18T13:15:27;18.20;78.50
36586;DHT22;22591;48.314;11.562;2023-05-18T13:17:57;18.30;78.40
36586;DHT22;22591;48.314;11.562;2023-05-18T13:20:30;18.90;77.80
36586;DHT22;22591;48.314;11.562;2023-05-18T13:23:03;19.00;77.30
36586;DHT22;22591;48.314;11.562;2023-05-18T13:25:29;19.20;78.10
36586;DHT22;22591;48.314;11.562;2023-05-18T13:27:55;19.30;76.50
36586;DHT22;22591;48.314;11.562;2023-05-18T13:30:21;19.20;77.20
36586;DHT22;22591;48.314;11.562;2023-05-18T13:32:48;18.80;77.30
36586;DHT22;22591;48.314;11.562;2023-05-18T13:35:13;18.50;77.80
36586;DHT22;22591;48.314;11.562;2023-05-18T13:37:39;18.20;77.80
36586;DHT22;22591;48.314;11.562;2023-05-18T13:40:06;17.90;79.10
36586;DHT22;22591;48.314;11.562;2023-05-18T13:42:32;17.80;78.70
36586;DHT22;22591;48.314;11.562;2023-05-18T13:44:58;17.70;78.70
36586;DHT22;22591;48.314;11.562;2023-05-18T13:47:23;17.80;79.60
36586;DHT22;22591;48.314;11.562;2023-05-18T13:49:49;17.80;79.80
36586;DHT22;22591;48.314;11.562;2023-05-18T13:52:14;18.00;80.10
36586;DHT22;22591;48.314;11.562;2023-05-18T13:54:40;17.80;79.50
36586;DHT22;22591;48.314;11.562;2023-05-18T13:57:05;17.60;80.30
36586;DHT22;22591;48.314;11.562;2023-05-18T13:59:32;17.60;80.00
36586;DHT22;22591;48.314;11.562;2023-05-18T14:01:59;17.70;79.60
36586;DHT22;22591;48.314;11.562;2023-05-18T14:04:25;17.40;79.60
36586;DHT22;22591;48.314;11.562;2023-05-18T14:06:51;17.30;80.20
36586;DHT22;22591;48.314;11.562;2023-05-18T14:09:18;17.00;80.70
36586;DHT22;22591;48.314;11.562;2023-05-18T14:11:44;17.00;81.00
36586;DHT22;22591;48.314;11.562;2023-05-18T14:14:09;17.30;82.20
36586;DHT22;22591;48.314;11.562;2023-05-18T14:16:35;17.80;81.60
36586;DHT22;22591;48.314;11.562;2023-05-18T14:19:01;17.70;79.00
36586;DHT22;22591;48.314;11.562;2023-05-18T14:21:27;17.40;79.90
36586;DHT22;22591;48.314;11.562;2023-05-18T14:23:52;17.40;80.60
36586;DHT22;22591;48.314;11.562;2023-05-18T14:26:18;17.10;80.50
36586;DHT22;22591;48.314;11.562;2023-05-18T14:28:43;16.80;82.10
36586;DHT22;22591;48.314;11.562;2023-05-18T14:31:09;16.80;82.70
36586;DHT22;22591;48.314;11.562;2023-05-18T14:33:34;16.90;82.70
36586;DHT22;22591;48.314;11.562;2023-05-18T14:36:00;16.90;83.00
36586;DHT22;22591;48.314;11.562;2023-05-18T14:38:26;16.90;82.80
36586;DHT22;22591;48.314;11.562;2023-05-18T14:40:52;17.00;82.10
36586;DHT22;22591;48.314;11.562;2023-05-18T14:43:17;16.90;82.10
36586;DHT22;22591;48.314;11.562;2023-05-18T14:45:43;16.80;83.20
36586;DHT22;22591;48.314;11.562;2023-05-18T14:48:08;16.70;83.40
36586;DHT22;22591;48.314;11.562;2023-05-18T14:50:35;16.70;84.30
36586;DHT22;22591;48.314;11.562;2023-05-18T14:53:01;16.60;83.00
36586;DHT22;22591;48.314;11.562;2023-05-18T14:55:26;16.60;84.40
36586;DHT22;22591;48.314;11.562;2023-05-18T14:57:52;17.10;83.90
36586;DHT22;22591;48.314;11.562;2023-05-18T15:00:18;17.50;83.20
36586;DHT22;22591;48.314;11.562;2023-05-18T15:02:43;17.60;82.10
36586;DHT22;22591;48.314;11.562;2023-05-18T15:05:09;17.50;82.00
36586;DHT22;22591;48.314;11.562;2023-05-18T15:07:35;17.60;83.30
36586;DHT22;22591;48.314;11.562;2023-05-18T15:10:02;17.40;84.00
36586;DHT22;22591;48.314;11.562;2023-05-18T15:12:27;17.30;83.90
36586;DHT22;22591;48.314;11.562;2023-05-18T15:14:53;17.00;84.60
36586;DHT22;22591;48.314;11.562;2023-05-18T15:17:19;16.80;84.40
36586;DHT22;22591;48.314;11.562;2023-05-18T15:19:44;16.80;85.30
36586;DHT22;22591;48.314;11.562;2023-05-18T15:22:11;16.80;84.30
36586;DHT22;22591;48.314;11.562;2023-05-18T15:24:36;16.60;84.20
36586;DHT22;22591;48.314;11.562;2023-05-18T15:27:02;16.40;85.40
36586;DHT22;22591;48.314;11.562;2023-05-18T15:29:28;16.10;85.90
36586;DHT22;22591;48.314;11.562;2023-05-18T15:31:53;16.00;87.20
36586;DHT22;22591;48.314;11.562;2023-05-18T15:34:19;15.80;86.90
36586;DHT22;22591;48.314;11.562;2023-05-18T15:36:45;15.70;88.40
36586;DHT22;22591;48.314;11.562;2023-05-18T15:39:11;15.60;87.50
36586;DHT22;22591;48.314;11.562;2023-05-18T15:41:37;15.70;88.40
36586;DHT22;22591;48.314;11.562;2023-05-18T15:44:03;15.80;88.30
36586;DHT22;22591;48.314;11.562;2023-05-18T15:46:29;15.60;87.70